sensor_id;sensor_type;location;lat;lon;timestamp;pressure;altitude;pressure_sealevel;temperature;humidity
46464;BME280;32161;48.148;-1.554;2022-09-01T00:02:04;101093.53;;;21.09;92.49
46464;BME280;32161;48.148;-1.554;2022-09-01T00:04:35;101090.84;;;21.04;92.66
46464;BME280;32161;48.148;-1.554;2022-09-01T00:07:04;101080.34;;;21.01;93.07
46464;BME280;32161;48.148;-1.554;2022-09-01T00:09:32;101063.25;;;20.99;93.72
46464;BME280;32161;48.148;-1.554;2022-09-01T00:12:03;101056.88;;;20.98;93.80
46464;BME280;32161;48.148;-1.554;2022-09-01T00:14:33;101066.28;;;20.97;93.67
46464;BME280;32161;48.148;-1.554;2022-09-01T00:17:04;101063.03;;;20.95;93.25
46464;BME280;32161;48.148;-1.554;2022-09-01T00:19:32;101072.19;;;20.91;92.61
46464;BME280;32161;48.148;-1.554;2022-09-01T00:22:01;101064.47;;;20.88;92.56
46464;BME280;32161;48.148;-1.554;2022-09-01T00:24:29;101067.25;;;20.88;92.07
46464;BME280;32161;48.148;-1.554;2022-09-01T00:26:57;101067.81;;;20.85;92.04
46464;BME280;32161;48.148;-1.554;2022-09-01T00:29:26;101054.31;;;20.83;91.37
46464;BME280;32161;48.148;-1.554;2022-09-01T00:31:54;101051.31;;;20.80;91.46
46464;BME280;32161;48.148;-1.554;2022-09-01T00:34:22;101057.91;;;20.79;91.62
46464;BME280;32161;48.148;-1.554;2022-09-01T00:36:49;101057.09;;;20.78;91.73
46464;BME280;32161;48.148;-1.554;2022-09-01T00:39:17;101049.69;;;20.73;91.06
46464;BME280;32161;48.148;-1.554;2022-09-01T00:41:45;101043.69;;;20.66;91.20
46464;BME280;32161;48.148;-1.554;2022-09-01T00:44:18;101052.00;;;20.61;91.31
46464;BME280;32161;48.148;-1.554;2022-09-01T00:46:51;101053.41;;;20.59;90.45
46464;BME280;32161;48.148;-1.554;2022-09-01T00:49:26;101051.78;;;20.58;89.99
46464;BME280;32161;48.148;-1.554;2022-09-01T00:51:59;101055.41;;;20.53;89.69
46464;BME280;32161;48.148;-1.554;2022-09-01T00:54:31;101049.63;;;20.50;89.01
46464;BME280;32161;48.148;-1.554;2022-09-01T00:57:02;101058.16;;;20.48;89.07
46464;BME280;32161;48.148;-1.554;2022-09-01T00:59:31;101059.59;;;20.40;89.06
46464;BME280;32161;48.148;-1.554;2022-09-01T01:02:00;101058.25;;;20.38;89.31
46464;BME280;32161;48.148;-1.554;2022-09-01T01:04:28;101056.59;;;20.37;89.10
46464;BME280;32161;48.148;-1.554;2022-09-01T01:06:58;101052.00;;;20.27;88.09
46464;BME280;32161;48.148;-1.554;2022-09-01T01:09:32;101049.59;;;20.15;88.24
46464;BME280;32161;48.148;-1.554;2022-09-01T01:12:03;101056.00;;;20.06;88.15
46464;BME280;32161;48.148;-1.554;2022-09-01T01:14:34;101046.38;;;20.03;89.10
46464;BME280;32161;48.148;-1.554;2022-09-01T01:17:03;101055.75;;;20.02;88.75
46464;BME280;32161;48.148;-1.554;2022-09-01T01:19:40;101057.16;;;19.99;88.47
46464;BME280;32161;48.148;-1.554;2022-09-01T01:22:34;101058.31;;;19.88;88.65
46464;BME280;32161;48.148;-1.554;2022-09-01T01:25:23;101066.09;;;19.81;89.62
46464;BME280;32161;48.148;-1.554;2022-09-01T01:27:50;101069.69;;;19.77;89.69
46464;BME280;32161;48.148;-1.554;2022-09-01T01:30:19;101066.69;;;19.73;89.95
46464;BME280;32161;48.148;-1.554;2022-09-01T01:32:48;101069.19;;;19.69;90.30
46464;BME280;32161;48.148;-1.554;2022-09-01T01:35:17;101067.28;;;19.65;90.09
46464;BME280;32161;48.148;-1.554;2022-09-01T01:37:48;101075.25;;;19.61;90.48
46464;BME280;32161;48.148;-1.554;2022-09-01T01:40:19;101076.38;;;19.60;91.12
46464;BME280;32161;48.148;-1.554;2022-09-01T01:42:51;101079.41;;;19.64;90.21
46464;BME280;32161;48.148;-1.554;2022-09-01T01:45:23;101078.31;;;19.65;89.69
46464;BME280;32161;48.148;-1.554;2022-09-01T01:47:52;101075.25;;;19.61;89.69
46464;BME280;32161;48.148;-1.554;2022-09-01T01:50:23;101072.25;;;19.58;89.41
46464;BME280;32161;48.148;-1.554;2022-09-01T01:52:51;101062.88;;;19.54;90.97
46464;BME280;32161;48.148;-1.554;2022-09-01T01:55:20;101064.81;;;19.48;91.70
46464;BME280;32161;48.148;-1.554;2022-09-01T01:57:51;101059.31;;;19.53;90.67
46464;BME280;32161;48.148;-1.554;2022-09-01T02:00:25;101067.88;;;19.46;89.85
46464;BME280;32161;48.148;-1.554;2022-09-01T02:02:54;101064.84;;;19.43;89.54
46464;BME280;32161;48.148;-1.554;2022-09-01T02:05:25;101064.06;;;19.37;89.54
46464;BME280;32161;48.148;-1.554;2022-09-01T02:07:57;101059.66;;;19.31;89.79
46464;BME280;32161;48.148;-1.554;2022-09-01T02:10:30;101059.09;;;19.29;90.66
46464;BME280;32161;48.148;-1.554;2022-09-01T02:13:01;101049.47;;;19.32;90.50
46464;BME280;32161;48.148;-1.554;2022-09-01T02:15:30;101066.56;;;19.28;90.80
46464;BME280;32161;48.148;-1.554;2022-09-01T02:18:04;101067.09;;;19.31;90.99
46464;BME280;32161;48.148;-1.554;2022-09-01T02:20:31;101070.69;;;19.31;90.58
46464;BME280;32161;48.148;-1.554;2022-09-01T02:22:59;101068.75;;;19.32;91.31
46464;BME280;32161;48.148;-1.554;2022-09-01T02:25:37;101068.78;;;19.26;92.24
46464;BME280;32161;48.148;-1.554;2022-09-01T02:28:12;101064.13;;;19.22;92.71
46464;BME280;32161;48.148;-1.554;2022-09-01T02:30:41;101070.44;;;19.22;92.55
46464;BME280;32161;48.148;-1.554;2022-09-01T02:33:10;101080.34;;;19.23;92.05
46464;BME280;32161;48.148;-1.554;2022-09-01T02:35:44;101061.63;;;19.20;91.99
46464;BME280;32161;48.148;-1.554;2022-09-01T02:38:12;101059.97;;;19.19;92.24
46464;BME280;32161;48.148;-1.554;2022-09-01T02:40:41;101059.16;;;19.19;92.17
46464;BME280;32161;48.148;-1.554;2022-09-01T02:43:12;101057.78;;;19.16;92.57
46464;BME280;32161;48.148;-1.554;2022-09-01T02:45:44;101062.16;;;19.17;92.57
46464;BME280;32161;48.148;-1.554;2022-09-01T02:48:12;101058.59;;;19.22;92.20
46464;BME280;32161;48.148;-1.554;2022-09-01T02:50:41;101059.41;;;19.17;92.11
46464;BME280;32161;48.148;-1.554;2022-09-01T02:53:09;101058.31;;;19.13;92.26
46464;BME280;32161;48.148;-1.554;2022-09-01T02:55:38;101045.09;;;19.10;92.24
46464;BME280;32161;48.148;-1.554;2022-09-01T02:58:07;101055.31;;;19.15;91.62
46464;BME280;32161;48.148;-1.554;2022-09-01T03:00:41;101045.63;;;19.17;91.05
46464;BME280;32161;48.148;-1.554;2022-09-01T03:03:09;101045.63;;;19.17;90.80
46464;BME280;32161;48.148;-1.554;2022-09-01T03:05:38;101052.25;;;19.16;90.89
46464;BME280;32161;48.148;-1.554;2022-09-01T03:08:09;101053.09;;;19.17;90.40
46464;BME280;32161;48.148;-1.554;2022-09-01T03:10:42;101046.22;;;19.14;90.82
46464;BME280;32161;48.148;-1.554;2022-09-01T03:13:16;101050.63;;;19.10;91.28
46464;BME280;32161;48.148;-1.554;2022-09-01T03:15:45;101046.25;;;19.04;91.38
46464;BME280;32161;48.148;-1.554;2022-09-01T03:18:14;101046.25;;;19.04;90.98
46464;BME280;32161;48.148;-1.554;2022-09-01T03:20:45;101047.31;;;19.08;90.49
46464;BME280;32161;48.148;-1.554;2022-09-01T03:23:16;101043.75;;;19.08;89.45
46464;BME280;32161;48.148;-1.554;2022-09-01T03:25:46;101047.88;;;19.05;89.43
46464;BME280;32161;48.148;-1.554;2022-09-01T03:28:15;101053.13;;;19.01;89.37
46464;BME280;32161;48.148;-1.554;2022-09-01T03:30:48;101037.16;;;18.98;89.35
46464;BME280;32161;48.148;-1.554;2022-09-01T03:33:19;101046.25;;;18.94;89.99
46464;BME280;32161;48.148;-1.554;2022-09-01T03:35:48;101042.97;;;18.92;90.73
46464;BME280;32161;48.148;-1.554;2022-09-01T03:38:16;101036.31;;;18.98;90.29
46464;BME280;32161;48.148;-1.554;2022-09-01T03:40:50;101039.09;;;18.93;89.82
46464;BME280;32161;48.148;-1.554;2022-09-01T03:43:19;101038.00;;;18.89;89.64
46464;BME280;32161;48.148;-1.554;2022-09-01T03:45:54;101028.38;;;18.81;90.34
46464;BME280;32161;48.148;-1.554;2022-09-01T03:48:23;101033.91;;;18.76;90.83
46464;BME280;32161;48.148;-1.554;2022-09-01T03:50:54;101025.06;;;18.69;90.74
46464;BME280;32161;48.148;-1.554;2022-09-01T03:53:29;101030.56;;;18.64;91.56
46464;BME280;32161;48.148;-1.554;2022-09-01T03:55:57;101029.47;;;18.70;90.62
46464;BME280;32161;48.148;-1.554;2022-09-01T03:58:25;101021.50;;;18.68;91.08
46464;BME280;32161;48.148;-1.554;2022-09-01T04:00:58;101022.31;;;18.64;91.02
46464;BME280;32161;48.148;-1.554;2022-09-01T04:03:31;101023.16;;;18.59;90.43
46464;BME280;32161;48.148;-1.554;2022-09-01T04:06:01;101009.66;;;18.58;91.23
46464;BME280;32161;48.148;-1.554;2022-09-01T04:08:28;101017.63;;;18.59;91.77
46464;BME280;32161;48.148;-1.554;2022-09-01T04:10:59;101012.13;;;18.59;92.03
46464;BME280;32161;48.148;-1.554;2022-09-01T04:13:33;101008.28;;;18.55;92.16
46464;BME280;32161;48.148;-1.554;2022-09-01T04:16:03;101003.31;;;18.52;92.59
46464;BME280;32161;48.148;-1.554;2022-09-01T04:18:35;101015.44;;;18.51;92.84
46464;BME280;32161;48.148;-1.554;2022-09-01T04:21:02;101020.69;;;18.47;92.06
46464;BME280;32161;48.148;-1.554;2022-09-01T04:23:34;101020.41;;;18.44;92.25
46464;BME280;32161;48.148;-1.554;2022-09-01T04:26:06;101025.91;;;18.44;92.33
46464;BME280;32161;48.148;-1.554;2022-09-01T04:28:38;101019.88;;;18.42;91.65
46464;BME280;32161;48.148;-1.554;2022-09-01T04:31:11;101015.72;;;18.44;92.25
46464;BME280;32161;48.148;-1.554;2022-09-01T04:33:40;101016.56;;;18.40;92.29
46464;BME280;32161;48.148;-1.554;2022-09-01T04:36:15;101010.78;;;18.36;92.00
46464;BME280;32161;48.148;-1.554;2022-09-01T04:38:45;101010.78;;;18.36;92.24
46464;BME280;32161;48.148;-1.554;2022-09-01T04:41:13;101004.47;;;18.30;92.87
46464;BME280;32161;48.148;-1.554;2022-09-01T04:43:43;101004.47;;;18.30;92.88
46464;BME280;32161;48.148;-1.554;2022-09-01T04:46:14;101002.53;;;18.36;92.42
46464;BME280;32161;48.148;-1.554;2022-09-01T04:48:42;101006.09;;;18.37;92.16
46464;BME280;32161;48.148;-1.554;2022-09-01T04:51:11;101004.72;;;18.34;92.50
46464;BME280;32161;48.148;-1.554;2022-09-01T04:53:41;101000.31;;;18.28;93.16
46464;BME280;32161;48.148;-1.554;2022-09-01T04:56:15;101000.59;;;18.26;92.96
46464;BME280;32161;48.148;-1.554;2022-09-01T04:58:44;101003.91;;;18.28;92.86
46464;BME280;32161;48.148;-1.554;2022-09-01T05:01:16;101001.41;;;18.32;92.37
46464;BME280;32161;48.148;-1.554;2022-09-01T05:03:45;100995.09;;;18.32;92.58
46464;BME280;32161;48.148;-1.554;2022-09-01T05:06:14;100994.00;;;18.27;91.93
46464;BME280;32161;48.148;-1.554;2022-09-01T05:08:43;100984.94;;;18.22;92.42
46464;BME280;32161;48.148;-1.554;2022-09-01T05:11:11;100984.94;;;18.22;92.49
46464;BME280;32161;48.148;-1.554;2022-09-01T05:13:42;100988.50;;;18.12;93.10
46464;BME280;32161;48.148;-1.554;2022-09-01T05:16:15;100983.00;;;18.07;93.02
46464;BME280;32161;48.148;-1.554;2022-09-01T05:18:46;100988.50;;;18.07;93.29
46464;BME280;32161;48.148;-1.554;2022-09-01T05:21:16;100994.00;;;18.07;93.22
46464;BME280;32161;48.148;-1.554;2022-09-01T05:23:45;100990.16;;;18.03;93.89
46464;BME280;32161;48.148;-1.554;2022-09-01T05:26:16;100986.53;;;18.02;94.26
46464;BME280;32161;48.148;-1.554;2022-09-01T05:28:46;100989.88;;;18.04;93.16
46464;BME280;32161;48.148;-1.554;2022-09-01T05:31:15;100989.56;;;18.06;92.75
46464;BME280;32161;48.148;-1.554;2022-09-01T05:33:45;100978.03;;;18.09;93.09
46464;BME280;32161;48.148;-1.554;2022-09-01T05:36:16;100975.03;;;18.11;93.45
46464;BME280;32161;48.148;-1.554;2022-09-01T05:38:45;100974.75;;;18.12;93.33
46464;BME280;32161;48.148;-1.554;2022-09-01T05:41:15;100982.97;;;18.17;93.59
46464;BME280;32161;48.148;-1.554;2022-09-01T05:43:45;100977.47;;;18.17;93.94
46464;BME280;32161;48.148;-1.554;2022-09-01T05:46:18;100975.00;;;18.16;94.89
46464;BME280;32161;48.148;-1.554;2022-09-01T05:48:48;100978.59;;;18.16;95.17
46464;BME280;32161;48.148;-1.554;2022-09-01T05:51:19;100971.97;;;18.17;95.23
46464;BME280;32161;48.148;-1.554;2022-09-01T05:53:48;100979.69;;;18.15;95.04
46464;BME280;32161;48.148;-1.554;2022-09-01T05:56:18;100985.19;;;18.15;95.19
46464;BME280;32161;48.148;-1.554;2022-09-01T05:58:46;100987.66;;;18.17;95.79
46464;BME280;32161;48.148;-1.554;2022-09-01T06:01:19;100989.03;;;18.19;95.64
46464;BME280;32161;48.148;-1.554;2022-09-01T06:03:51;100991.81;;;18.19;96.15
46464;BME280;32161;48.148;-1.554;2022-09-01T06:06:20;100988.75;;;18.21;95.69
46464;BME280;32161;48.148;-1.554;2022-09-01T06:08:48;100990.44;;;18.22;95.56
46464;BME280;32161;48.148;-1.554;2022-09-01T06:11:18;100995.63;;;18.28;95.46
46464;BME280;32161;48.148;-1.554;2022-09-01T06:13:45;100998.13;;;18.35;94.78
46464;BME280;32161;48.148;-1.554;2022-09-01T06:16:22;100995.66;;;18.39;94.71
46464;BME280;32161;48.148;-1.554;2022-09-01T06:18:50;100989.31;;;18.38;94.88
46464;BME280;32161;48.148;-1.554;2022-09-01T06:21:20;100988.50;;;18.38;94.94
46464;BME280;32161;48.148;-1.554;2022-09-01T06:23:50;100996.19;;;18.41;95.25
46464;BME280;32161;48.148;-1.554;2022-09-01T06:26:22;100998.38;;;18.44;95.64
46464;BME280;32161;48.148;-1.554;2022-09-01T06:28:52;100990.13;;;18.49;95.80
46464;BME280;32161;48.148;-1.554;2022-09-01T06:31:23;100989.31;;;18.53;95.68
46464;BME280;32161;48.148;-1.554;2022-09-01T06:33:51;100992.59;;;18.61;96.06
46464;BME280;32161;48.148;-1.554;2022-09-01T06:36:20;100989.81;;;18.66;96.19
46464;BME280;32161;48.148;-1.554;2022-09-01T06:38:49;100978.56;;;18.72;96.68
46464;BME280;32161;48.148;-1.554;2022-09-01T06:41:19;100980.75;;;18.81;96.89
46464;BME280;32161;48.148;-1.554;2022-09-01T06:43:48;100986.22;;;18.86;96.68
46464;BME280;32161;48.148;-1.554;2022-09-01T06:46:17;100988.13;;;18.90;96.58
46464;BME280;32161;48.148;-1.554;2022-09-01T06:48:47;100984.28;;;18.96;96.49
46464;BME280;32161;48.148;-1.554;2022-09-01T06:51:18;100986.19;;;19.01;96.38
46464;BME280;32161;48.148;-1.554;2022-09-01T06:53:48;100989.75;;;19.07;96.50
46464;BME280;32161;48.148;-1.554;2022-09-01T06:56:22;100994.41;;;19.11;96.32
46464;BME280;32161;48.148;-1.554;2022-09-01T06:58:52;100999.09;;;19.16;95.88
46464;BME280;32161;48.148;-1.554;2022-09-01T07:01:21;101000.16;;;19.20;95.65
46464;BME280;32161;48.148;-1.554;2022-09-01T07:03:52;100995.22;;;19.22;95.81
46464;BME280;32161;48.148;-1.554;2022-09-01T07:06:21;100999.88;;;19.26;96.23
46464;BME280;32161;48.148;-1.554;2022-09-01T07:08:52;100992.94;;;19.29;96.30
46464;BME280;32161;48.148;-1.554;2022-09-01T07:11:24;100999.84;;;19.32;95.88
46464;BME280;32161;48.148;-1.554;2022-09-01T07:13:56;100998.47;;;19.34;95.13
46464;BME280;32161;48.148;-1.554;2022-09-01T07:16:25;100999.25;;;19.40;95.19
46464;BME280;32161;48.148;-1.554;2022-09-01T07:18:57;101002.53;;;19.47;95.34
46464;BME280;32161;48.148;-1.554;2022-09-01T07:21:28;101000.03;;;19.50;95.36
46464;BME280;32161;48.148;-1.554;2022-09-01T07:23:57;101001.09;;;19.55;95.45
46464;BME280;32161;48.148;-1.554;2022-09-01T07:26:29;101010.19;;;19.60;95.59
46464;BME280;32161;48.148;-1.554;2022-09-01T07:28:59;101012.13;;;19.65;95.31
46464;BME280;32161;48.148;-1.554;2022-09-01T07:31:30;101005.19;;;19.67;95.35
46464;BME280;32161;48.148;-1.554;2022-09-01T07:34:04;101006.00;;;19.73;95.62
46464;BME280;32161;48.148;-1.554;2022-09-01T07:36:32;101010.97;;;19.76;95.41
46464;BME280;32161;48.148;-1.554;2022-09-01T07:39:01;101009.53;;;19.84;95.55
46464;BME280;32161;48.148;-1.554;2022-09-01T07:41:28;101001.50;;;19.87;94.88
46464;BME280;32161;48.148;-1.554;2022-09-01T07:43:57;100993.44;;;19.91;95.16
46464;BME280;32161;48.148;-1.554;2022-09-01T07:46:26;101001.97;;;19.94;95.00
46464;BME280;32161;48.148;-1.554;2022-09-01T07:48:57;100991.00;;;19.89;95.23
46464;BME280;32161;48.148;-1.554;2022-09-01T07:51:27;100995.66;;;19.94;95.34
46464;BME280;32161;48.148;-1.554;2022-09-01T07:53:55;100994.78;;;19.98;96.23
46464;BME280;32161;48.148;-1.554;2022-09-01T07:56:24;100994.47;;;20.05;96.02
46464;BME280;32161;48.148;-1.554;2022-09-01T07:58:52;100999.91;;;20.15;95.51
46464;BME280;32161;48.148;-1.554;2022-09-01T08:01:23;100999.59;;;20.22;95.47
46464;BME280;32161;48.148;-1.554;2022-09-01T08:03:54;101000.06;;;20.29;95.30
46464;BME280;32161;48.148;-1.554;2022-09-01T08:06:26;101000.31;;;20.33;95.32
46464;BME280;32161;48.148;-1.554;2022-09-01T08:08:57;101001.38;;;20.37;95.42
46464;BME280;32161;48.148;-1.554;2022-09-01T08:11:28;101003.28;;;20.41;95.28
46464;BME280;32161;48.148;-1.554;2022-09-01T08:13:57;101005.69;;;20.48;94.95
46464;BME280;32161;48.148;-1.554;2022-09-01T08:16:26;101009.53;;;20.52;94.49
46464;BME280;32161;48.148;-1.554;2022-09-01T08:18:54;101008.47;;;20.53;94.14
46464;BME280;32161;48.148;-1.554;2022-09-01T08:21:23;101012.03;;;20.54;93.77
46464;BME280;32161;48.148;-1.554;2022-09-01T08:23:54;101018.69;;;20.53;94.42
46464;BME280;32161;48.148;-1.554;2022-09-01T08:26:27;101024.47;;;20.51;94.59
46464;BME280;32161;48.148;-1.554;2022-09-01T08:28:55;101019.78;;;20.52;95.46
46464;BME280;32161;48.148;-1.554;2022-09-01T08:31:24;101011.28;;;20.43;95.07
46464;BME280;32161;48.148;-1.554;2022-09-01T08:33:53;101009.09;;;20.40;95.53
46464;BME280;32161;48.148;-1.554;2022-09-01T08:36:21;101004.38;;;20.40;95.50
46464;BME280;32161;48.148;-1.554;2022-09-01T08:38:50;101008.22;;;20.44;95.75
46464;BME280;32161;48.148;-1.554;2022-09-01T08:41:28;101008.22;;;20.44;95.39
46464;BME280;32161;48.148;-1.554;2022-09-01T08:44:07;100998.53;;;20.47;95.95
46464;BME280;32161;48.148;-1.554;2022-09-01T08:46:41;101003.75;;;20.48;96.05
46464;BME280;32161;48.148;-1.554;2022-09-01T08:49:15;101001.56;;;20.51;95.96
46464;BME280;32161;48.148;-1.554;2022-09-01T08:51:49;101004.31;;;20.51;95.42
46464;BME280;32161;48.148;-1.554;2022-09-01T08:54:25;101016.13;;;20.56;95.52
46464;BME280;32161;48.148;-1.554;2022-09-01T08:57:00;101017.81;;;20.57;94.81
46464;BME280;32161;48.148;-1.554;2022-09-01T08:59:28;101017.81;;;20.57;94.98
46464;BME280;32161;48.148;-1.554;2022-09-01T09:02:04;101024.16;;;20.58;94.51
46464;BME280;32161;48.148;-1.554;2022-09-01T09:04:52;101023.56;;;20.61;94.21
46464;BME280;32161;48.148;-1.554;2022-09-01T09:07:41;101018.88;;;20.61;94.19
46464;BME280;32161;48.148;-1.554;2022-09-01T09:10:19;101014.69;;;20.64;94.93
46464;BME280;32161;48.148;-1.554;2022-09-01T09:13:00;101020.41;;;20.72;94.05
46464;BME280;32161;48.148;-1.554;2022-09-01T09:15:38;101011.00;;;20.73;93.50
46464;BME280;32161;48.148;-1.554;2022-09-01T09:18:15;101014.31;;;20.76;93.92
46464;BME280;32161;48.148;-1.554;2022-09-01T09:20:44;101013.13;;;20.82;94.94
46464;BME280;32161;48.148;-1.554;2022-09-01T09:23:22;101006.97;;;20.90;94.16
46464;BME280;32161;48.148;-1.554;2022-09-01T09:25:52;101014.09;;;20.96;93.67
46464;BME280;32161;48.148;-1.554;2022-09-01T09:28:20;101009.63;;;21.00;93.92
46464;BME280;32161;48.148;-1.554;2022-09-01T09:30:47;101022.56;;;21.05;93.66
46464;BME280;32161;48.148;-1.554;2022-09-01T09:33:33;101013.97;;;21.06;92.91
46464;BME280;32161;48.148;-1.554;2022-09-01T09:36:33;101017.81;;;21.10;92.58
46464;BME280;32161;48.148;-1.554;2022-09-01T09:39:11;101016.91;;;21.15;92.56
46464;BME280;32161;48.148;-1.554;2022-09-01T09:41:41;101017.97;;;21.19;92.47
46464;BME280;32161;48.148;-1.554;2022-09-01T09:44:24;101009.84;;;21.28;92.31
46464;BME280;32161;48.148;-1.554;2022-09-01T09:46:53;101016.44;;;21.32;92.93
46464;BME280;32161;48.148;-1.554;2022-09-01T09:49:25;101019.69;;;21.39;92.91
46464;BME280;32161;48.148;-1.554;2022-09-01T09:51:55;101006.44;;;21.36;92.17
46464;BME280;32161;48.148;-1.554;2022-09-01T09:54:26;101011.72;;;21.37;92.16
46464;BME280;32161;48.148;-1.554;2022-09-01T09:57:10;101010.81;;;21.42;92.76
46464;BME280;32161;48.148;-1.554;2022-09-01T09:59:41;101011.19;;;21.54;92.25
46464;BME280;32161;48.148;-1.554;2022-09-01T10:02:23;101008.44;;;21.54;91.19
46464;BME280;32161;48.148;-1.554;2022-09-01T10:04:51;101003.94;;;21.58;91.59
46464;BME280;32161;48.148;-1.554;2022-09-01T10:07:33;101004.63;;;21.69;90.45
46464;BME280;32161;48.148;-1.554;2022-09-01T10:10:06;100997.88;;;21.75;91.15
46464;BME280;32161;48.148;-1.554;2022-09-01T10:12:35;101006.34;;;21.84;90.38
46464;BME280;32161;48.148;-1.554;2022-09-01T10:15:06;100994.88;;;21.90;90.17
46464;BME280;32161;48.148;-1.554;2022-09-01T10:17:38;100990.34;;;22.00;90.10
46464;BME280;32161;48.148;-1.554;2022-09-01T10:20:11;100991.28;;;22.09;89.20
46464;BME280;32161;48.148;-1.554;2022-09-01T10:22:42;100989.53;;;22.18;89.41
46464;BME280;32161;48.148;-1.554;2022-09-01T10:25:16;100986.88;;;22.27;90.15
46464;BME280;32161;48.148;-1.554;2022-09-01T10:27:49;100986.28;;;22.30;89.80
46464;BME280;32161;48.148;-1.554;2022-09-01T10:30:20;100983.63;;;22.38;89.44
46464;BME280;32161;48.148;-1.554;2022-09-01T10:32:50;100986.81;;;22.46;88.65
46464;BME280;32161;48.148;-1.554;2022-09-01T10:35:23;100989.81;;;22.63;88.96
46464;BME280;32161;48.148;-1.554;2022-09-01T10:37:53;100989.22;;;22.66;88.45
46464;BME280;32161;48.148;-1.554;2022-09-01T10:40:39;100982.03;;;22.79;87.99
46464;BME280;32161;48.148;-1.554;2022-09-01T10:43:33;100983.47;;;22.90;87.78
46464;BME280;32161;48.148;-1.554;2022-09-01T10:46:09;100981.56;;;23.04;85.86
46464;BME280;32161;48.148;-1.554;2022-09-01T10:48:58;100982.00;;;23.11;85.52
46464;BME280;32161;48.148;-1.554;2022-09-01T10:51:42;100981.25;;;23.20;86.11
46464;BME280;32161;48.148;-1.554;2022-09-01T10:54:54;100973.03;;;23.28;85.27
46464;BME280;32161;48.148;-1.554;2022-09-01T10:57:47;100977.13;;;23.45;85.17
46464;BME280;32161;48.148;-1.554;2022-09-01T11:00:48;100979.25;;;23.61;82.67
46464;BME280;32161;48.148;-1.554;2022-09-01T11:03:53;100972.78;;;23.66;81.13
46464;BME280;32161;48.148;-1.554;2022-09-01T11:06:55;100977.38;;;23.71;82.97
46464;BME280;32161;48.148;-1.554;2022-09-01T11:09:31;100975.53;;;23.80;81.44
46464;BME280;32161;48.148;-1.554;2022-09-01T11:12:24;100976.41;;;23.89;82.52
46464;BME280;32161;48.148;-1.554;2022-09-01T11:14:58;100970.09;;;23.97;83.08
46464;BME280;32161;48.148;-1.554;2022-09-01T11:17:29;100978.31;;;24.02;82.84
46464;BME280;32161;48.148;-1.554;2022-09-01T11:20:07;100974.88;;;24.05;82.16
46464;BME280;32161;48.148;-1.554;2022-09-01T11:22:38;100972.50;;;24.12;81.90
46464;BME280;32161;48.148;-1.554;2022-09-01T11:25:37;100966.69;;;24.23;80.90
46464;BME280;32161;48.148;-1.554;2022-09-01T11:28:40;100970.53;;;24.35;78.70
46464;BME280;32161;48.148;-1.554;2022-09-01T11:31:27;100971.28;;;24.50;75.46
46464;BME280;32161;48.148;-1.554;2022-09-01T11:34:11;100970.78;;;24.48;76.94
46464;BME280;32161;48.148;-1.554;2022-09-01T11:36:52;100971.59;;;24.48;77.97
46464;BME280;32161;48.148;-1.554;2022-09-01T11:39:41;100970.34;;;24.54;78.13
46464;BME280;32161;48.148;-1.554;2022-09-01T11:42:16;100970.56;;;24.67;78.55
46464;BME280;32161;48.148;-1.554;2022-09-01T11:44:51;100969.78;;;24.75;75.58
46464;BME280;32161;48.148;-1.554;2022-09-01T11:47:24;100963.47;;;24.92;75.33
46464;BME280;32161;48.148;-1.554;2022-09-01T11:49:57;100962.00;;;24.94;74.81
46464;BME280;32161;48.148;-1.554;2022-09-01T11:52:29;100962.16;;;24.89;74.96
46464;BME280;32161;48.148;-1.554;2022-09-01T11:54:59;100963.78;;;24.90;74.29
46464;BME280;32161;48.148;-1.554;2022-09-01T11:57:30;100964.78;;;24.94;76.01
46464;BME280;32161;48.148;-1.554;2022-09-01T12:00:00;100958.44;;;25.02;74.67
46464;BME280;32161;48.148;-1.554;2022-09-01T12:02:31;100966.50;;;25.13;75.97
46464;BME280;32161;48.148;-1.554;2022-09-01T12:05:08;100957.34;;;25.21;74.81
46464;BME280;32161;48.148;-1.554;2022-09-01T12:07:49;100963.13;;;25.33;74.57
46464;BME280;32161;48.148;-1.554;2022-09-01T12:10:29;100964.78;;;25.51;71.28
46464;BME280;32161;48.148;-1.554;2022-09-01T12:13:05;100961.84;;;25.56;69.53
46464;BME280;32161;48.148;-1.554;2022-09-01T12:15:54;100959.38;;;25.55;68.27
46464;BME280;32161;48.148;-1.554;2022-09-01T12:18:26;100953.66;;;25.51;71.18
46464;BME280;32161;48.148;-1.554;2022-09-01T12:20:57;100947.44;;;25.54;71.01
46464;BME280;32161;48.148;-1.554;2022-09-01T12:23:30;100953.16;;;25.58;71.26
46464;BME280;32161;48.148;-1.554;2022-09-01T12:26:02;100959.56;;;25.58;70.62
46464;BME280;32161;48.148;-1.554;2022-09-01T12:28:33;100957.59;;;25.68;70.32
46464;BME280;32161;48.148;-1.554;2022-09-01T12:31:05;100955.63;;;25.42;69.54
46464;BME280;32161;48.148;-1.554;2022-09-01T12:33:33;100951.72;;;25.61;70.97
46464;BME280;32161;48.148;-1.554;2022-09-01T12:36:23;100958.28;;;25.82;69.11
46464;BME280;32161;48.148;-1.554;2022-09-01T12:38:53;100946.47;;;25.94;67.99
46464;BME280;32161;48.148;-1.554;2022-09-01T12:41:36;100941.84;;;26.24;66.86
46464;BME280;32161;48.148;-1.554;2022-09-01T12:44:32;100941.38;;;26.04;68.42
46464;BME280;32161;48.148;-1.554;2022-09-01T12:47:03;100940.91;;;26.02;68.99
46464;BME280;32161;48.148;-1.554;2022-09-01T12:49:38;100937.75;;;26.13;70.41
46464;BME280;32161;48.148;-1.554;2022-09-01T12:52:21;100941.03;;;26.23;68.95
46464;BME280;32161;48.148;-1.554;2022-09-01T12:55:08;100931.00;;;26.31;67.11
46464;BME280;32161;48.148;-1.554;2022-09-01T12:57:47;100932.78;;;26.36;69.58
46464;BME280;32161;48.148;-1.554;2022-09-01T13:00:20;100923.28;;;26.45;67.67
46464;BME280;32161;48.148;-1.554;2022-09-01T13:02:50;100924.06;;;26.54;67.71
46464;BME280;32161;48.148;-1.554;2022-09-01T13:05:21;100921.78;;;26.57;66.86
46464;BME280;32161;48.148;-1.554;2022-09-01T13:07:54;100918.13;;;26.65;68.17
46464;BME280;32161;48.148;-1.554;2022-09-01T13:10:24;100925.28;;;26.74;67.23